Time;durP1;ratioP1;P1;durP2;ratioP2;P2;SDS_P1;SDS_P2;PMS_P1;PMS_P2;Temp;Humidity;BMP_temperature;BMP_pressure;BME280_temperature;BME280_humidity;BME280_pressure;Samples;Min_cycle;Max_cycle;Signal;HPM_P1;HPM_P2
2022/05/05 00:00:48;;;;;;;14.80;7.60;;;;;;;;;;5064279;28;20478;-80
2022/05/05 00:03:14;;;;;;;16.75;7.45;;;;;;;;;;5080355;28;20063;-80
2022/05/05 00:05:40;;;;;;;14.05;7.00;;;;;;;;;;5073841;28;20093;-80
2022/05/05 00:08:08;;;;;;;12.60;6.95;;;;;;;;;;5073745;28;20132;-80
2022/05/05 00:16:04;;;;;;;13.20;6.70;;;;;;;;;;5082882;28;20048;-80
2022/05/05 00:18:30;;;;;;;15.15;6.82;;;;;;;;;;5077626;28;20038;-80
2022/05/05 00:20:56;;;;;;;15.93;6.65;;;;;;;;;;5079127;28;20501;-80
2022/05/05 00:23:22;;;;;;;12.77;6.15;;;;;;;;;;5079859;28;20036;-80
2022/05/05 00:25:48;;;;;;;16.48;6.68;;;;;;;;;;5077380;28;20036;-80
2022/05/05 00:28:14;;;;;;;11.77;6.10;;;;;;;;;;5077191;28;20032;-80
2022/05/05 00:30:40;;;;;;;14.82;6.50;;;;;;;;;;5073743;28;20040;-80
2022/05/05 00:33:06;;;;;;;16.88;6.30;;;;;;;;;;5080372;28;20484;-80
2022/05/05 00:35:32;;;;;;;14.07;6.38;;;;;;;;;;5064253;28;20064;-80
2022/05/05 00:37:58;;;;;;;12.13;5.97;;;;;;;;;;5069821;28;20044;-80
2022/05/05 00:40:25;;;;;;;11.43;6.05;;;;;;;;;;5079049;28;20062;-80
2022/05/05 00:42:51;;;;;;;14.65;6.85;;;;;;;;;;5056658;28;20058;-80
2022/05/05 00:45:17;;;;;;;13.77;6.03;;;;;;;;;;5073893;28;20064;-81
2022/05/05 00:47:43;;;;;;;15.82;6.65;;;;;;;;;;5060467;28;20037;-81
2022/05/05 00:50:11;;;;;;;10.30;5.97;;;;;;;;;;5071863;28;20484;-80
2022/05/05 00:52:37;;;;;;;18.02;6.78;;;;;;;;;;5070034;28;20100;-80
2022/05/05 00:55:03;;;;;;;16.92;6.65;;;;;;;;;;5076591;28;20052;-81
2022/05/05 00:57:30;;;;;;;14.02;6.32;;;;;;;;;;5075675;28;20040;-81
2022/05/05 00:59:56;;;;;;;14.43;6.70;;;;;;;;;;5057082;28;20511;-80
2022/05/05 01:02:23;;;;;;;12.90;5.90;;;;;;;;;;5077454;28;20032;-80
2022/05/05 01:04:49;;;;;;;16.48;6.68;;;;;;;;;;5075727;28;20033;-80
2022/05/05 01:07:15;;;;;;;15.13;6.53;;;;;;;;;;5075867;28;20131;-80
2022/05/05 01:09:41;;;;;;;16.83;6.80;;;;;;;;;;5074374;28;21278;-80
2022/05/05 01:12:08;;;;;;;15.50;6.75;;;;;;;;;;5076702;28;20028;-80
2022/05/05 01:14:34;;;;;;;13.88;6.10;;;;;;;;;;5072818;28;20036;-80
2022/05/05 01:17:01;;;;;;;19.40;6.75;;;;;;;;;;5077917;28;20200;-80
2022/05/05 01:19:27;;;;;;;12.73;6.20;;;;;;;;;;5053883;28;20035;-80
2022/05/05 01:21:57;;;;;;;16.30;7.05;;;;;;;;;;5082440;28;20078;-80
2022/05/05 01:29:52;;;;;;;13.65;6.25;;;;;;;;;;5076232;28;20045;-80
2022/05/05 01:32:19;;;;;;;14.20;6.13;;;;;;;;;;5040774;28;20499;-80
2022/05/05 01:34:45;;;;;;;14.93;6.63;;;;;;;;;;5058913;28;20369;-80
2022/05/05 01:37:11;;;;;;;10.70;6.03;;;;;;;;;;5058070;28;20094;-80
2022/05/05 01:39:37;;;;;;;17.10;6.10;;;;;;;;;;5074052;28;20033;-80
2022/05/05 01:42:03;;;;;;;12.15;5.72;;;;;;;;;;5072935;28;20052;-80
2022/05/05 01:44:29;;;;;;;11.32;5.75;;;;;;;;;;5069620;28;20492;-80
2022/05/05 01:46:55;;;;;;;11.50;6.18;;;;;;;;;;5077339;28;20573;-80
2022/05/05 01:49:21;;;;;;;13.55;5.88;;;;;;;;;;5059888;28;20388;-80
2022/05/05 01:51:48;;;;;;;12.45;5.88;;;;;;;;;;5073928;28;20044;-80
2022/05/05 01:54:14;;;;;;;13.18;6.30;;;;;;;;;;5079480;28;20044;-80
2022/05/05 01:56:40;;;;;;;13.52;6.03;;;;;;;;;;5082989;28;20043;-79
2022/05/05 01:59:06;;;;;;;13.15;6.22;;;;;;;;;;5078474;28;20048;-80
2022/05/05 02:01:33;;;;;;;14.93;6.25;;;;;;;;;;5041952;28;20055;-80
2022/05/05 02:04:01;;;;;;;13.85;6.47;;;;;;;;;;5081504;28;20050;-80
2022/05/05 02:06:27;;;;;;;13.45;6.80;;;;;;;;;;5074038;28;20499;-80
2022/05/05 02:08:53;;;;;;;14.15;6.50;;;;;;;;;;5072818;28;20127;-80
2022/05/05 02:11:19;;;;;;;13.15;6.43;;;;;;;;;;5078497;28;20552;-80
2022/05/05 02:13:45;;;;;;;12.95;7.05;;;;;;;;;;5080169;28;20678;-80
2022/05/05 02:16:11;;;;;;;12.13;6.18;;;;;;;;;;5075291;28;20040;-80
2022/05/05 02:18:37;;;;;;;13.93;6.63;;;;;;;;;;5078499;28;20033;-80
2022/05/05 02:21:03;;;;;;;13.85;6.85;;;;;;;;;;5072129;28;20759;-80
2022/05/05 02:23:29;;;;;;;13.73;7.57;;;;;;;;;;5076782;28;20039;-80
2022/05/05 02:25:56;;;;;;;15.07;6.55;;;;;;;;;;5058320;28;20544;-80
2022/05/05 02:28:22;;;;;;;16.38;6.90;;;;;;;;;;5072644;28;20075;-80
2022/05/05 02:30:49;;;;;;;16.35;7.93;;;;;;;;;;5081661;28;20098;-80
2022/05/05 02:33:15;;;;;;;12.00;6.78;;;;;;;;;;5081261;28;20028;-80
2022/05/05 02:35:41;;;;;;;15.90;6.60;;;;;;;;;;5077996;28;20036;-80
2022/05/05 02:40:52;;;;;;;13.43;7.03;;;;;;;;;;5078750;28;20053;-80
2022/05/05 02:43:18;;;;;;;13.85;7.28;;;;;;;;;;5075512;28;20066;-80
2022/05/05 02:45:44;;;;;;;15.50;6.82;;;;;;;;;;5092060;28;20032;-80
2022/05/05 02:48:11;;;;;;;13.18;6.95;;;;;;;;;;5063151;28;20126;-80
2022/05/05 02:50:37;;;;;;;13.52;7.50;;;;;;;;;;5071756;28;20036;-80
2022/05/05 02:54:47;;;;;;;14.48;6.80;;;;;;;;;;5053803;28;20036;-80
2022/05/05 02:55:49;;;;;;;14.07;7.53;;;;;;;;;;5073998;28;20542;-80
2022/05/05 02:58:15;;;;;;;12.85;7.72;;;;;;;;;;5070300;28;20068;-80
2022/05/05 03:00:41;;;;;;;15.73;7.63;;;;;;;;;;5066118;28;20041;-80
2022/05/05 03:03:07;;;;;;;16.02;7.80;;;;;;;;;;5088562;28;20036;-80
2022/05/05 03:05:33;;;;;;;15.80;7.18;;;;;;;;;;5076941;28;20523;-80
2022/05/05 03:07:59;;;;;;;14.13;7.88;;;;;;;;;;5071392;28;20400;-80
2022/05/05 03:10:27;;;;;;;14.00;7.70;;;;;;;;;;5078557;28;20143;-80
2022/05/05 03:12:54;;;;;;;13.75;7.03;;;;;;;;;;5055058;28;20585;-80
2022/05/05 03:15:20;;;;;;;12.35;7.22;;;;;;;;;;5072932;28;20051;-80
2022/05/05 03:17:48;;;;;;;12.00;7.32;;;;;;;;;;5034731;28;20553;-80
2022/05/05 03:20:14;;;;;;;16.95;7.60;;;;;;;;;;5067805;28;20044;-80
2022/05/05 03:22:40;;;;;;;16.70;6.90;;;;;;;;;;5070011;28;20036;-80
2022/05/05 03:25:06;;;;;;;16.67;7.78;;;;;;;;;;5069643;28;20036;-80
2022/05/05 03:27:33;;;;;;;20.67;9.05;;;;;;;;;;5073921;28;20031;-80
2022/05/05 03:29:59;;;;;;;14.82;8.05;;;;;;;;;;5069842;28;20056;-80
2022/05/05 03:32:25;;;;;;;18.17;8.13;;;;;;;;;;5052085;28;20119;-80
2022/05/05 03:34:51;;;;;;;16.45;7.75;;;;;;;;;;5073321;28;20036;-80
2022/05/05 03:37:17;;;;;;;13.75;7.85;;;;;;;;;;5078031;28;20583;-80
2022/05/05 03:39:43;;;;;;;17.40;7.80;;;;;;;;;;5054610;28;20480;-80
2022/05/05 03:42:09;;;;;;;15.93;7.97;;;;;;;;;;5050794;28;20113;-80
2022/05/05 03:44:35;;;;;;;16.63;8.43;;;;;;;;;;5068068;28;20062;-80
2022/05/05 03:47:01;;;;;;;20.90;8.38;;;;;;;;;;5070263;28;20048;-80
2022/05/05 03:49:27;;;;;;;19.73;8.70;;;;;;;;;;5067957;28;20048;-80
2022/05/05 03:51:55;;;;;;;15.48;8.50;;;;;;;;;;5070243;28;20044;-80
2022/05/05 03:54:22;;;;;;;16.70;8.30;;;;;;;;;;5067441;28;20086;-80
2022/05/05 03:56:48;;;;;;;19.17;8.55;;;;;;;;;;5076398;28;20036;-80
2022/05/05 03:59:14;;;;;;;15.77;8.48;;;;;;;;;;5080475;28;20024;-80
2022/05/05 04:01:40;;;;;;;19.15;8.75;;;;;;;;;;5067646;28;20044;-80
2022/05/05 04:04:06;;;;;;;17.38;8.65;;;;;;;;;;5051226;28;20127;-80
2022/05/05 04:06:32;;;;;;;14.85;8.27;;;;;;;;;;5085500;28;20047;-80
2022/05/05 04:08:58;;;;;;;15.18;8.13;;;;;;;;;;5083094;28;20078;-80
2022/05/05 04:11:25;;;;;;;18.80;9.15;;;;;;;;;;5067301;28;20440;-80
2022/05/05 04:13:51;;;;;;;15.85;9.05;;;;;;;;;;5075268;28;20037;-80
2022/05/05 04:16:17;;;;;;;12.73;8.15;;;;;;;;;;5067359;28;20048;-80
2022/05/05 04:18:44;;;;;;;18.70;9.52;;;;;;;;;;5053798;28;20060;-80
2022/05/05 04:21:10;;;;;;;14.63;8.05;;;;;;;;;;5062826;28;20045;-80
2022/05/05 04:23:37;;;;;;;14.00;8.25;;;;;;;;;;5066557;28;20373;-80
2022/05/05 04:26:04;;;;;;;11.80;7.70;;;;;;;;;;5071672;28;20037;-80
2022/05/05 04:28:30;;;;;;;17.50;8.60;;;;;;;;;;5050818;28;20463;-80
2022/05/05 04:30:56;;;;;;;22.00;9.90;;;;;;;;;;5073477;28;20044;-80
2022/05/05 04:33:22;;;;;;;20.27;9.60;;;;;;;;;;5051696;28;20047;-81
2022/05/05 04:35:49;;;;;;;18.75;9.07;;;;;;;;;;5066911;28;20636;-79
2022/05/05 04:38:15;;;;;;;16.90;9.00;;;;;;;;;;5070812;28;20032;-80
2022/05/05 04:40:42;;;;;;;17.38;8.63;;;;;;;;;;5073898;28;20035;-81
2022/05/05 04:43:08;;;;;;;16.33;8.45;;;;;;;;;;5084084;28;20063;-81
2022/05/05 04:45:34;;;;;;;14.38;9.00;;;;;;;;;;5078540;28;20044;-80
2022/05/05 04:48:00;;;;;;;19.52;9.20;;;;;;;;;;5076007;28;20492;-81
2022/05/05 04:50:26;;;;;;;14.73;8.57;;;;;;;;;;5071336;28;20259;-80
2022/05/05 04:52:52;;;;;;;20.88;8.98;;;;;;;;;;5052802;28;20094;-82
2022/05/05 04:55:18;;;;;;;16.10;8.40;;;;;;;;;;5068521;28;20123;-81
2022/05/05 04:57:44;;;;;;;14.30;8.40;;;;;;;;;;5085707;28;20101;-80
2022/05/05 05:00:11;;;;;;;18.95;8.23;;;;;;;;;;5069241;28;20044;-81
2022/05/05 05:02:37;;;;;;;17.65;9.45;;;;;;;;;;5054081;28;20028;-82
2022/05/05 05:05:03;;;;;;;21.63;9.30;;;;;;;;;;5051357;28;20040;-81
2022/05/05 05:07:29;;;;;;;20.50;9.50;;;;;;;;;;5087328;28;20049;-81
2022/05/05 05:09:55;;;;;;;17.10;9.50;;;;;;;;;;5076220;28;20083;-83
2022/05/05 05:12:21;;;;;;;20.58;9.02;;;;;;;;;;5083606;28;20092;-84
2022/05/05 05:14:48;;;;;;;15.23;9.00;;;;;;;;;;5073660;28;20048;-86
2022/05/05 05:17:16;;;;;;;14.65;8.95;;;;;;;;;;5075517;28;20044;-82
2022/05/05 05:19:42;;;;;;;14.48;8.60;;;;;;;;;;5060860;28;20032;-82
2022/05/05 05:22:08;;;;;;;14.55;9.05;;;;;;;;;;5075143;28;20085;-83
2022/05/05 05:24:36;;;;;;;15.95;8.20;;;;;;;;;;5066958;28;20050;-83
2022/05/05 05:27:10;;;;;;;13.85;8.43;;;;;;;;;;5084388;28;20036;-82
2022/05/05 05:29:36;;;;;;;15.65;8.40;;;;;;;;;;5076277;28;20503;-82
2022/05/05 05:32:02;;;;;;;15.35;8.23;;;;;;;;;;5063844;28;20110;-82
2022/05/05 05:34:31;;;;;;;15.55;8.85;;;;;;;;;;5074332;28;20044;-82
2022/05/05 05:36:57;;;;;;;13.35;8.20;;;;;;;;;;5079777;28;20446;-83
2022/05/05 05:39:23;;;;;;;18.20;8.68;;;;;;;;;;5087686;28;20040;-82
2022/05/05 05:41:49;;;;;;;13.57;8.13;;;;;;;;;;5074734;28;20067;-82
2022/05/05 05:44:15;;;;;;;19.10;8.35;;;;;;;;;;5071502;28;20051;-82
2022/05/05 05:46:44;;;;;;;14.65;8.45;;;;;;;;;;5079891;28;20068;-82
2022/05/05 05:49:13;;;;;;;14.18;8.48;;;;;;;;;;5072078;28;20093;-82
2022/05/05 05:51:39;;;;;;;16.17;8.15;;;;;;;;;;5071338;28;20126;-82
2022/05/05 05:54:06;;;;;;;15.25;8.55;;;;;;;;;;5070134;28;20119;-83
2022/05/05 05:56:32;;;;;;;14.20;8.40;;;;;;;;;;5076663;28;20041;-83
2022/05/05 05:59:01;;;;;;;11.48;7.72;;;;;;;;;;5070552;28;20039;-82
2022/05/05 06:03:53;;;;;;;17.08;8.32;;;;;;;;;;5063602;28;20040;-82
2022/05/05 06:04:13;;;;;;;16.42;7.80;;;;;;;;;;5073190;28;20476;-83
2022/05/05 06:06:41;;;;;;;17.85;8.55;;;;;;;;;;5070180;28;20550;-82
2022/05/05 06:09:07;;;;;;;16.75;8.57;;;;;;;;;;5040206;28;20044;-82
2022/05/05 06:11:35;;;;;;;14.27;7.95;;;;;;;;;;5075305;28;20451;-83
2022/05/05 06:14:04;;;;;;;12.77;8.13;;;;;;;;;;5075629;28;20064;-82
2022/05/05 06:16:32;;;;;;;17.25;8.65;;;;;;;;;;5062337;28;20048;-82
2022/05/05 06:19:06;;;;;;;14.60;8.48;;;;;;;;;;5052967;28;20097;-82
2022/05/05 06:21:32;;;;;;;15.00;8.95;;;;;;;;;;5072895;28;20123;-81
2022/05/05 06:23:58;;;;;;;14.50;8.23;;;;;;;;;;5083612;28;20048;-81
2022/05/05 06:26:27;;;;;;;15.57;9.43;;;;;;;;;;5071750;28;20044;-81
2022/05/05 06:28:54;;;;;;;17.48;9.15;;;;;;;;;;5082614;28;20040;-81
2022/05/05 06:31:22;;;;;;;15.88;9.63;;;;;;;;;;5086539;28;20543;-81
2022/05/05 06:33:49;;;;;;;23.25;10.02;;;;;;;;;;5087567;28;20040;-81
2022/05/05 06:36:16;;;;;;;19.23;9.85;;;;;;;;;;5074567;28;20051;-82
2022/05/05 06:38:42;;;;;;;21.10;9.75;;;;;;;;;;5083309;28;20044;-82
2022/05/05 06:41:08;;;;;;;22.58;10.05;;;;;;;;;;5069285;28;20053;-82
2022/05/05 06:43:37;;;;;;;20.88;9.38;;;;;;;;;;5078036;28;20493;-83
2022/05/05 06:46:03;;;;;;;21.70;9.82;;;;;;;;;;5076981;28;20149;-82
2022/05/05 06:48:31;;;;;;;20.85;9.55;;;;;;;;;;5084496;28;20556;-81
2022/05/05 06:50:57;;;;;;;15.52;9.57;;;;;;;;;;5079117;28;20043;-81
2022/05/05 06:53:23;;;;;;;21.70;9.32;;;;;;;;;;5070375;28;20078;-81
2022/05/05 06:55:49;;;;;;;20.10;9.40;;;;;;;;;;5073562;28;20044;-82
2022/05/05 06:58:15;;;;;;;20.90;9.50;;;;;;;;;;5066463;28;20393;-82
2022/05/05 07:03:26;;;;;;;15.63;9.50;;;;;;;;;;5076128;28;20527;-82
2022/05/05 07:05:52;;;;;;;16.35;9.40;;;;;;;;;;5077008;28;20235;-82
2022/05/05 07:08:18;;;;;;;17.95;9.07;;;;;;;;;;5072297;28;20097;-82
2022/05/05 07:10:57;;;;;;;16.70;9.02;;;;;;;;;;5081974;28;20568;-82
2022/05/05 07:13:24;;;;;;;19.13;9.55;;;;;;;;;;5073331;28;20082;-82
2022/05/05 07:15:51;;;;;;;16.25;9.25;;;;;;;;;;5076535;28;20070;-81
2022/05/05 07:18:17;;;;;;;20.27;9.32;;;;;;;;;;5073301;28;20051;-81
2022/05/05 07:20:44;;;;;;;17.98;9.40;;;;;;;;;;5084318;28;20098;-82
2022/05/05 07:23:14;;;;;;;13.43;8.68;;;;;;;;;;5078860;28;20037;-82
2022/05/05 07:25:43;;;;;;;15.45;9.15;;;;;;;;;;5062123;28;20125;-82
2022/05/05 07:28:09;;;;;;;22.90;9.90;;;;;;;;;;5085727;28;20043;-81
2022/05/05 07:30:36;;;;;;;19.77;9.18;;;;;;;;;;5058700;28;20531;-81
2022/05/05 07:33:02;;;;;;;15.07;8.23;;;;;;;;;;5083396;28;20713;-82
2022/05/05 07:35:29;;;;;;;15.85;8.55;;;;;;;;;;5071413;28;20044;-82
2022/05/05 07:37:55;;;;;;;17.38;8.88;;;;;;;;;;5057936;28;20032;-82
2022/05/05 07:40:21;;;;;;;16.63;7.57;;;;;;;;;;5072140;28;20040;-82
2022/05/05 07:42:47;;;;;;;17.83;7.60;;;;;;;;;;5078864;28;20411;-81
2022/05/05 07:45:13;;;;;;;17.80;8.07;;;;;;;;;;5083058;28;20064;-82
2022/05/05 07:47:39;;;;;;;15.20;7.70;;;;;;;;;;5075607;28;20043;-82
2022/05/05 07:50:06;;;;;;;14.23;7.50;;;;;;;;;;5076734;28;20135;-82
2022/05/05 07:52:32;;;;;;;17.35;7.68;;;;;;;;;;5095547;28;20377;-83
2022/05/05 07:54:58;;;;;;;13.75;7.60;;;;;;;;;;5056464;28;20097;-82
2022/05/05 07:57:26;;;;;;;16.60;8.02;;;;;;;;;;5070883;28;20079;-82
2022/05/05 07:59:55;;;;;;;18.20;8.20;;;;;;;;;;5075332;28;20032;-82
2022/05/05 08:02:21;;;;;;;14.15;7.50;;;;;;;;;;5062752;28;20105;-82
2022/05/05 08:04:47;;;;;;;16.63;6.75;;;;;;;;;;5058399;28;20032;-82
2022/05/05 08:07:13;;;;;;;13.50;7.85;;;;;;;;;;5074952;28;20546;-82
2022/05/05 08:09:40;;;;;;;16.70;7.00;;;;;;;;;;5071696;28;20307;-82
2022/05/05 08:12:08;;;;;;;16.05;7.25;;;;;;;;;;5070503;28;20071;-82
2022/05/05 08:14:35;;;;;;;20.27;8.30;;;;;;;;;;5058722;28;20147;-82
2022/05/05 08:17:03;;;;;;;12.68;6.85;;;;;;;;;;5076335;28;20419;-82
2022/05/05 08:19:29;;;;;;;17.30;6.75;;;;;;;;;;5083146;28;20480;-82
2022/05/05 08:21:56;;;;;;;16.73;7.28;;;;;;;;;;5082929;28;20043;-82
2022/05/05 08:29:51;;;;;;;15.13;6.60;;;;;;;;;;5077986;28;20083;-80
2022/05/05 08:32:17;;;;;;;14.93;6.47;;;;;;;;;;5072504;28;20055;-80
2022/05/05 08:34:43;;;;;;;14.18;6.90;;;;;;;;;;5071336;28;20041;-80
2022/05/05 08:37:09;;;;;;;12.27;6.60;;;;;;;;;;5069090;28;20041;-80
2022/05/05 08:39:36;;;;;;;19.85;6.80;;;;;;;;;;5080791;28;20040;-80
2022/05/05 08:42:04;;;;;;;11.02;6.35;;;;;;;;;;5059403;28;20052;-80
2022/05/05 08:44:30;;;;;;;12.95;6.22;;;;;;;;;;5078384;28;20036;-81
2022/05/05 08:46:56;;;;;;;15.70;6.05;;;;;;;;;;5050829;28;20565;-81
2022/05/05 08:49:25;;;;;;;13.75;5.53;;;;;;;;;;5076089;28;20059;-81
2022/05/05 08:51:52;;;;;;;13.32;5.88;;;;;;;;;;5077302;28;20523;-81
2022/05/05 08:54:22;;;;;;;10.45;5.43;;;;;;;;;;5071872;28;20122;-81
2022/05/05 08:56:50;;;;;;;10.15;5.38;;;;;;;;;;5058065;28;20467;-81
2022/05/05 08:59:20;;;;;;;11.15;5.40;;;;;;;;;;5062142;28;20548;-81
2022/05/05 09:01:46;;;;;;;11.80;5.95;;;;;;;;;;5090435;28;20045;-82
2022/05/05 09:04:13;;;;;;;9.82;4.97;;;;;;;;;;5071339;28;20035;-81
2022/05/05 09:06:42;;;;;;;10.73;5.50;;;;;;;;;;5055210;28;20047;-82
2022/05/05 09:09:23;;;;;;;9.85;5.70;;;;;;;;;;5080571;28;20483;-82
2022/05/05 09:12:09;;;;;;;10.02;6.38;;;;;;;;;;5067340;28;20424;-81
2022/05/05 09:14:45;;;;;;;9.55;5.18;;;;;;;;;;5073952;28;20169;-81
2022/05/05 09:17:13;;;;;;;11.77;6.07;;;;;;;;;;5082210;28;20091;-81
2022/05/05 09:19:40;;;;;;;13.15;6.63;;;;;;;;;;5070402;28;20066;-81
2022/05/05 09:22:07;;;;;;;10.40;7.00;;;;;;;;;;5069764;28;20051;-81
2022/05/05 09:24:41;;;;;;;11.50;7.10;;;;;;;;;;5082920;28;20040;-81
2022/05/05 09:27:17;;;;;;;10.57;6.85;;;;;;;;;;5067746;28;20158;-80
2022/05/05 09:29:54;;;;;;;11.95;7.22;;;;;;;;;;5076281;28;20045;-81
2022/05/05 09:32:20;;;;;;;13.15;7.05;;;;;;;;;;5068833;28;20055;-81
2022/05/05 09:34:46;;;;;;;10.43;6.80;;;;;;;;;;5084393;28;20530;-81
2022/05/05 09:37:19;;;;;;;10.25;6.40;;;;;;;;;;5078423;28;20041;-81
2022/05/05 09:39:45;;;;;;;13.00;6.75;;;;;;;;;;5083065;28;20032;-81
2022/05/05 09:42:11;;;;;;;9.60;6.70;;;;;;;;;;5074956;28;20067;-81
2022/05/05 09:44:46;;;;;;;11.35;6.85;;;;;;;;;;5086443;28;20057;-81
2022/05/05 09:47:16;;;;;;;12.55;7.63;;;;;;;;;;5055581;28;20434;-81
2022/05/05 09:49:42;;;;;;;12.30;7.70;;;;;;;;;;5071438;28;20480;-81
2022/05/05 09:57:52;;;;;;;12.40;7.25;;;;;;;;;;5079422;28;20044;-82
2022/05/05 10:01:05;;;;;;;10.98;6.90;;;;;;;;;;5077709;28;20032;-81
2022/05/05 10:05:51;;;;;;;11.60;7.47;;;;;;;;;;5081634;28;20448;-81
2022/05/05 10:08:21;;;;;;;12.38;7.22;;;;;;;;;;5071316;28;20044;-82
2022/05/05 10:10:48;;;;;;;11.00;7.50;;;;;;;;;;5076654;28;20098;-82
2022/05/05 10:13:15;;;;;;;12.63;7.78;;;;;;;;;;5067076;28;20085;-81
2022/05/05 10:15:42;;;;;;;11.82;6.90;;;;;;;;;;5039759;28;20044;-82
2022/05/05 10:18:12;;;;;;;12.20;6.97;;;;;;;;;;5089965;28;20040;-81
2022/05/05 10:20:38;;;;;;;10.63;6.75;;;;;;;;;;5090236;28;20491;-81
2022/05/05 10:23:04;;;;;;;9.95;7.20;;;;;;;;;;5068896;28;20127;-81
2022/05/05 10:25:32;;;;;;;13.15;6.68;;;;;;;;;;5078233;28;20039;-82
2022/05/05 10:27:59;;;;;;;10.63;7.00;;;;;;;;;;5076801;28;20492;-80
2022/05/05 10:30:35;;;;;;;8.23;6.50;;;;;;;;;;5080190;28;20045;-81
2022/05/05 10:33:08;;;;;;;9.82;6.28;;;;;;;;;;5056972;28;20077;-81
2022/05/05 10:35:39;;;;;;;11.55;6.28;;;;;;;;;;5084205;28;20123;-82
2022/05/05 10:38:25;;;;;;;10.00;6.00;;;;;;;;;;5073599;28;20447;-82
2022/05/05 10:40:53;;;;;;;13.52;6.60;;;;;;;;;;5098761;28;20083;-82
2022/05/05 10:43:33;;;;;;;9.15;5.82;;;;;;;;;;5076406;28;20032;-81
2022/05/05 10:46:01;;;;;;;11.25;5.90;;;;;;;;;;5067400;28;20048;-81
2022/05/05 10:48:35;;;;;;;12.85;6.32;;;;;;;;;;5080572;28;20064;-82
2022/05/05 10:51:05;;;;;;;9.55;6.00;;;;;;;;;;5059738;28;20583;-81
2022/05/05 10:53:33;;;;;;;9.23;6.05;;;;;;;;;;5069626;28;20419;-81
2022/05/05 10:56:00;;;;;;;8.40;6.03;;;;;;;;;;5068677;28;20040;-82
2022/05/05 10:58:45;;;;;;;8.65;5.93;;;;;;;;;;5086953;28;20442;-82
2022/05/05 11:01:11;;;;;;;8.25;5.80;;;;;;;;;;5069261;28;20123;-82
2022/05/05 11:03:37;;;;;;;12.25;6.90;;;;;;;;;;5063672;28;20113;-82
2022/05/05 11:06:16;;;;;;;7.40;5.72;;;;;;;;;;5067609;28;20043;-81
2022/05/05 11:08:54;;;;;;;12.30;5.47;;;;;;;;;;5082640;28;20119;-82
2022/05/05 11:21:32;;;;;;;8.38;5.93;;;;;;;;;;5070166;28;20124;-82
2022/05/05 11:22:45;;;;;;;7.75;5.78;;;;;;;;;;5067412;28;20403;-81
2022/05/05 11:25:11;;;;;;;8.75;5.47;;;;;;;;;;5083944;28;20043;-81
2022/05/05 11:27:37;;;;;;;9.35;6.00;;;;;;;;;;5070149;28;20036;-81
2022/05/05 11:30:04;;;;;;;9.18;5.45;;;;;;;;;;5087215;28;20035;-81
2022/05/05 11:32:33;;;;;;;8.55;6.22;;;;;;;;;;5077792;28;20051;-82
2022/05/05 11:34:59;;;;;;;8.18;5.55;;;;;;;;;;5075556;28;20048;-81
2022/05/05 11:37:29;;;;;;;7.50;5.55;;;;;;;;;;5077524;28;20043;-81
2022/05/05 11:39:55;;;;;;;8.00;5.15;;;;;;;;;;5073273;28;20391;-81
2022/05/05 11:42:22;;;;;;;6.63;5.40;;;;;;;;;;5088395;28;20044;-80
2022/05/05 11:44:49;;;;;;;7.85;5.50;;;;;;;;;;5064258;28;20072;-81
2022/05/05 11:47:20;;;;;;;10.15;5.97;;;;;;;;;;5074991;28;20119;-80
2022/05/05 11:49:47;;;;;;;10.18;5.30;;;;;;;;;;5051795;28;20036;-80
2022/05/05 11:52:17;;;;;;;9.68;5.50;;;;;;;;;;5088724;28;20047;-80
2022/05/05 11:54:47;;;;;;;8.15;5.25;;;;;;;;;;5060683;28;20039;-80
2022/05/05 11:57:13;;;;;;;6.43;5.25;;;;;;;;;;5078677;28;20116;-83
2022/05/05 12:02:25;;;;;;;8.53;5.87;;;;;;;;;;5075680;28;20040;-81
2022/05/05 12:04:57;;;;;;;8.85;4.93;;;;;;;;;;5077823;28;20032;-83
2022/05/05 12:07:24;;;;;;;9.10;5.80;;;;;;;;;;5056898;28;20131;-85
2022/05/05 12:09:51;;;;;;;7.47;5.75;;;;;;;;;;5081203;28;20040;-85
2022/05/05 12:12:18;;;;;;;9.52;5.75;;;;;;;;;;5075138;28;20032;-84
2022/05/05 12:14:47;;;;;;;8.98;5.80;;;;;;;;;;5080527;28;20119;-84
2022/05/05 12:17:16;;;;;;;9.63;6.25;;;;;;;;;;5081573;28;20118;-83
2022/05/05 12:20:05;;;;;;;8.70;6.20;;;;;;;;;;5083165;28;20526;-84
2022/05/05 12:22:39;;;;;;;9.45;5.95;;;;;;;;;;5069176;28;20048;-82
2022/05/05 12:25:07;;;;;;;10.60;5.95;;;;;;;;;;5062390;28;20042;-85
2022/05/05 12:27:34;;;;;;;8.15;6.10;;;;;;;;;;5083887;28;20044;-83
2022/05/05 12:30:01;;;;;;;9.30;6.03;;;;;;;;;;5069366;28;20741;-84
2022/05/05 12:32:28;;;;;;;10.32;5.85;;;;;;;;;;5060953;28;20593;-85
2022/05/05 12:35:02;;;;;;;12.02;7.03;;;;;;;;;;5080191;28;20044;-84
2022/05/05 12:37:28;;;;;;;9.77;7.03;;;;;;;;;;5082406;28;20036;-84
2022/05/05 12:40:01;;;;;;;9.10;6.90;;;;;;;;;;5078440;28;20044;-83
2022/05/05 12:42:43;;;;;;;10.35;6.63;;;;;;;;;;5054366;28;20047;-83
2022/05/05 12:45:15;;;;;;;11.48;7.43;;;;;;;;;;5075833;28;20106;-83
2022/05/05 12:47:43;;;;;;;9.95;6.28;;;;;;;;;;5076136;28;20032;-85
2022/05/05 12:50:28;;;;;;;11.35;7.20;;;;;;;;;;5077227;28;20119;-83
2022/05/05 13:01:08;;;;;;;15.00;9.32;;;;;;;;;;5082678;28;20044;-82
2022/05/05 13:03:35;;;;;;;14.45;8.10;;;;;;;;;;5076966;28;20399;-81
2022/05/05 13:06:02;;;;;;;13.45;9.68;;;;;;;;;;5070242;28;20040;-81
2022/05/05 13:08:28;;;;;;;10.65;7.40;;;;;;;;;;5074710;28;20059;-81
2022/05/05 13:10:54;;;;;;;13.05;7.22;;;;;;;;;;5066534;28;20490;-80
2022/05/05 13:13:20;;;;;;;9.85;7.20;;;;;;;;;;5077337;28;20032;-80
2022/05/05 13:15:46;;;;;;;14.98;7.80;;;;;;;;;;5070765;28;20037;-81
2022/05/05 13:18:12;;;;;;;12.80;9.27;;;;;;;;;;5066164;28;20160;-80
2022/05/05 13:20:38;;;;;;;15.88;9.23;;;;;;;;;;5071315;28;20043;-81
2022/05/05 13:23:04;;;;;;;15.90;10.85;;;;;;;;;;5071928;28;20083;-82
2022/05/05 13:25:30;;;;;;;15.68;10.25;;;;;;;;;;5088465;28;20438;-80
2022/05/05 13:27:56;;;;;;;14.27;9.73;;;;;;;;;;5072126;28;20037;-80
2022/05/05 13:30:23;;;;;;;16.15;9.60;;;;;;;;;;5068269;28;20383;-81
2022/05/05 13:32:49;;;;;;;16.65;11.38;;;;;;;;;;5069682;28;20441;-81
2022/05/05 13:35:15;;;;;;;16.83;11.00;;;;;;;;;;5060505;28;20036;-79
2022/05/05 13:37:41;;;;;;;14.50;10.98;;;;;;;;;;5080180;28;20411;-80
2022/05/05 13:40:09;;;;;;;16.75;11.32;;;;;;;;;;5060198;28;20044;-81
2022/05/05 13:42:35;;;;;;;14.95;10.45;;;;;;;;;;5053362;28;20055;-81
2022/05/05 13:45:01;;;;;;;13.77;9.27;;;;;;;;;;5071127;28;20048;-81
2022/05/05 13:47:27;;;;;;;12.60;9.00;;;;;;;;;;5076856;28;20097;-81
2022/05/05 13:49:53;;;;;;;14.02;9.00;;;;;;;;;;5084319;28;20433;-82
2022/05/05 13:52:19;;;;;;;16.90;10.35;;;;;;;;;;5088237;28;20055;-81
2022/05/05 13:54:46;;;;;;;17.13;10.75;;;;;;;;;;5058710;28;20399;-81
2022/05/05 13:57:13;;;;;;;15.05;9.57;;;;;;;;;;5077338;28;20053;-82
2022/05/05 13:59:39;;;;;;;13.57;9.43;;;;;;;;;;5076995;28;20544;-81
2022/05/05 14:02:05;;;;;;;17.10;10.98;;;;;;;;;;5090198;28;20067;-81
2022/05/05 14:04:31;;;;;;;15.10;10.13;;;;;;;;;;5063738;28;20488;-80
2022/05/05 14:06:57;;;;;;;19.25;12.50;;;;;;;;;;5084558;28;20095;-81
2022/05/05 14:12:11;;;;;;;16.90;10.52;;;;;;;;;;5083387;28;20391;-82
2022/05/05 14:14:37;;;;;;;14.70;10.57;;;;;;;;;;5090174;28;20119;-81
2022/05/05 14:17:04;;;;;;;15.27;10.25;;;;;;;;;;5071078;28;20033;-81
2022/05/05 14:19:30;;;;;;;17.92;11.10;;;;;;;;;;5050674;28;20116;-80
2022/05/05 14:21:59;;;;;;;16.35;11.18;;;;;;;;;;5056431;28;20068;-82
2022/05/05 14:24:25;;;;;;;15.93;10.73;;;;;;;;;;5085170;28;20040;-81
2022/05/05 14:26:51;;;;;;;15.25;10.80;;;;;;;;;;5075039;28;20044;-81
2022/05/05 14:29:18;;;;;;;16.63;10.30;;;;;;;;;;5069262;28;20398;-81
2022/05/05 14:31:44;;;;;;;15.00;9.98;;;;;;;;;;5069340;28;20110;-81
2022/05/05 14:34:10;;;;;;;13.77;9.25;;;;;;;;;;5069379;28;20480;-81
2022/05/05 14:36:36;;;;;;;16.38;10.15;;;;;;;;;;5075842;28;20048;-82
2022/05/05 14:39:03;;;;;;;14.18;9.63;;;;;;;;;;5070500;28;20473;-81
2022/05/05 14:41:29;;;;;;;13.98;9.15;;;;;;;;;;5087480;28;20056;-82
2022/05/05 14:43:55;;;;;;;21.52;10.13;;;;;;;;;;5077254;28;20422;-81
2022/05/05 14:46:22;;;;;;;16.98;10.48;;;;;;;;;;5052957;28;20129;-82
2022/05/05 14:48:50;;;;;;;12.82;9.52;;;;;;;;;;5075366;28;20364;-81
2022/05/05 14:51:16;;;;;;;14.80;9.98;;;;;;;;;;5069007;28;20051;-81
2022/05/05 14:53:44;;;;;;;12.10;8.52;;;;;;;;;;5068521;28;20068;-83
2022/05/05 14:56:11;;;;;;;11.63;8.55;;;;;;;;;;5070429;28;20378;-81
2022/05/05 14:58:37;;;;;;;13.18;8.88;;;;;;;;;;5068944;28;20492;-81
2022/05/05 15:01:04;;;;;;;12.05;7.80;;;;;;;;;;5073724;28;20112;-81
2022/05/05 15:03:30;;;;;;;12.07;8.38;;;;;;;;;;5072017;28;20135;-81
2022/05/05 15:05:56;;;;;;;13.73;8.75;;;;;;;;;;5072294;28;20036;-82
2022/05/05 15:08:22;;;;;;;12.63;8.18;;;;;;;;;;5074750;28;20120;-82
2022/05/05 15:10:49;;;;;;;12.20;8.00;;;;;;;;;;5076265;28;20049;-81
2022/05/05 15:13:15;;;;;;;11.60;7.82;;;;;;;;;;5059659;28;20558;-82
2022/05/05 15:15:41;;;;;;;12.27;7.68;;;;;;;;;;5069637;28;20491;-82
2022/05/05 15:18:07;;;;;;;10.52;7.57;;;;;;;;;;5078504;28;20142;-81
2022/05/05 15:20:33;;;;;;;10.90;7.88;;;;;;;;;;5082253;28;20039;-82
2022/05/05 15:23:00;;;;;;;10.90;7.07;;;;;;;;;;5071109;28;20044;-81
2022/05/05 15:25:27;;;;;;;10.55;6.85;;;;;;;;;;5069160;28;20131;-82